Latest Coastal Weather Observations for Green Cape

IDN60701

Issued at 2:41 pm EDT Friday 27 March 2015 (issued every 10 minutes, with the page automatically refreshed every 10 minutes)

About coastal observations | Map of coastal stations | Coastal observations for NSW | Marine services | Other Formats
Station Details ID: 069137 Name: GREEN CAPE AWS Lat: -37.26 Lon: 150.05 Height: 19.4 m
Data from the previous 72 hours. | See also: Recent months at Green Cape
Date/Time
EDT
Temp

°C
Wind Pressure Rain
since 9am
mm
Weather Cloud Vis
km
Sea
Height
m
Swell
Dir
 
Speed
knots
Gust
knots
hPa Trend Height
m
Period
s
Dir
27/02:30pm 19.4 WSW 27 38 1015.7 - 0.0 - - - - - - -
27/02:04pm 19.0 WSW 25 36 1015.8 - 0.0 - - - - - - -
27/02:00pm 19.3 WSW 23 30 1016.0 - 0.0 - - - - - - -
27/01:39pm 19.1 WSW 31 41 1015.9 - 0.0 - - - - - - -
27/01:30pm 19.3 WSW 31 37 1015.7 - 0.0 - - - - - - -
27/01:15pm 19.8 WSW 26 38 1015.4 - 0.0 - - - - - - -
27/01:00pm 20.0 WSW 27 33 1015.6 - 0.0 - - - - - - -
27/12:33pm 19.8 WSW 28 39 1015.5 - 0.0 - - - - - - -
27/12:30pm 20.1 WSW 26 32 1015.7 - 0.0 - - - - - - -
27/12:00pm 19.6 WSW 27 33 1015.7 - 0.0 - - - - - - -
27/11:49am 19.8 W 27 34 1015.7 - 0.0 - - - - - - -
27/11:30am 19.9 W 17 27 1015.8 - 0.0 - - - - - - -
27/11:29am 19.8 W 16 27 1015.8 - 0.0 - - - - - - -
27/11:00am 19.6 WNW 12 19 1016.0 - 0.0 - - - - - - -
27/10:30am 18.8 WNW 8 12 1016.3 - 0.0 - - - - - - -
27/10:00am 18.9 NNW 4 8 1016.6 - 0.0 - - - - - - -
27/09:30am 18.4 NNW 6 10 1016.6 - 0.0 - - - - - - -
27/09:00am 17.6 NW 5 8 1016.6 - 0.4 - - - - - - -
27/08:30am 16.3 NNW 6 9 1016.7 - 0.4 - - - - - - -
27/08:00am 14.9 NNW 7 10 1016.4 - 0.4 - - - - - - -
27/07:30am 14.1 NNW 9 11 1016.2 - 0.4 - - - - - - -
27/07:00am 13.8 NNW 10 12 1015.9 - 0.4 - - - - - - -
27/06:30am 13.9 NNW 10 12 1015.7 - 0.4 - - - - - - -
27/06:00am 13.7 NNW 11 14 1015.5 - 0.4 - - - - - - -
27/05:30am 13.9 NNW 10 13 1015.5 - 0.4 - - - - - - -
27/05:00am 14.0 NNW 11 12 1015.6 - 0.4 - - - - - - -
27/04:30am 13.8 NNW 10 12 1015.6 - 0.4 - - - - - - -
27/04:00am 13.7 NNW 8 9 1015.9 - 0.4 - - - - - - -
27/03:30am 13.6 N 5 7 1015.9 - 0.4 - - - - - - -
27/03:00am 14.1 NNW 5 6 1016.3 - 0.4 - - - - - - -
27/02:30am 14.1 N 6 8 1016.4 - 0.4 - - - - - - -
27/02:00am 14.4 NNW 9 11 1016.6 - 0.4 - - - - - - -
27/01:30am 14.6 NNW 8 10 1016.6 - 0.4 - - - - - - -
27/01:00am 14.7 NNW 8 11 1016.7 - 0.4 - - - - - - -
27/12:30am 14.4 NW 8 10 1017.0 - 0.4 - - - - - - -
27/12:00am 14.4 NNW 9 12 1017.0 - 0.4 - - - - - - -
 
Date/Time
EDT
Temp

°C
Wind Pressure Rain
since 9am
mm
Weather Cloud Vis
km
Sea
Height
m
Swell
Dir
 
Speed
knots
Gust
knots
hPa Trend Height
m
Period
s
Dir
26/11:30pm 14.7 N 10 12 1017.1 - 0.4 - - - - - - -
26/11:00pm 14.6 NNW 8 10 1017.4 - 0.4 - - - - - - -
26/10:30pm 14.6 WNW 3 5 1017.6 - 0.4 - - - - - - -
26/10:00pm 14.7 WNW 3 5 1017.8 - 0.4 - - - - - - -
26/09:30pm 14.7 WNW 5 6 1017.7 - 0.4 - - - - - - -
26/09:00pm 15.1 W 6 9 1017.7 - 0.4 - - - - - - -
26/08:30pm 16.2 SW 8 10 1017.3 - 0.4 - - - - - - -
26/08:00pm 16.2 SSW 10 11 1016.8 - 0.4 - - - - - - -
26/07:30pm 16.4 S 12 15 1016.5 - 0.4 - - - - - - -
26/07:00pm 16.4 S 14 17 1016.2 - 0.4 - - - - - - -
26/06:30pm 16.4 SSW 17 20 1015.9 - 0.4 - - - - - - -
26/06:00pm 15.5 SSW 15 18 1015.6 - 0.4 Recent precip. - - - - - -
26/05:30pm 14.7 SSW 17 22 1015.6 - 0.0 - - - - - - -
26/05:00pm 16.6 SSW 19 23 1015.0 - 0.0 - - - - - - -
26/04:30pm 17.2 SSW 24 28 1014.7 - 0.0 - - - - - - -
26/04:00pm 17.2 S 25 29 1014.3 - 0.0 - - - - - - -
26/03:30pm 17.5 S 25 29 1014.3 - 0.0 - - - - - - -
26/03:00pm 17.2 S 26 29 1014.3 - 0.0 - - - - - - -
26/02:30pm 18.4 S 26 29 1014.2 - 0.0 - - - - - - -
26/02:00pm 19.8 S 24 28 1014.1 - 0.0 - - - - - - -
26/01:30pm 22.0 SSE 14 22 1014.5 - 0.0 - - - - - - -
26/01:28pm 22.4 SE 12 22 1014.5 - 0.0 - - - - - - -
26/01:00pm 23.2 SE 8 9 1014.7 - 0.0 - - - - - - -
26/12:30pm 23.2 SSE 10 12 1014.9 - 0.0 - - - - - - -
26/12:00pm 24.0 SSE 7 9 1015.1 - 0.0 - - - - - - -
26/11:30am 23.7 S 5 6 1015.2 - 0.0 - - - - - - -
26/11:00am 22.3 SSE 6 7 1015.3 - 0.0 - - - - - - -
26/10:30am 19.7 W 7 11 1015.2 - 0.0 - - - - - - -
26/10:00am 18.8 WNW 10 11 1015.0 - 0.0 - - - - - - -
26/09:30am 17.9 W 10 12 1014.9 - 0.0 - - - - - - -
26/09:00am 18.0 WNW 5 6 1014.9 - 0.0 - - - - - - -
26/08:30am 17.4 NW 4 6 1014.8 - 0.0 - - - - - - -
26/08:00am 17.0 NW 6 8 1014.6 - 0.0 - - - - - - -
26/07:30am 16.5 NNW 8 10 1014.4 - 0.0 - - - - - - -
26/07:00am 17.2 NNW 8 12 1014.1 - 0.0 - - - - - - -
26/06:30am 17.2 NNW 8 12 1014.3 - 0.0 - - - - - - -
26/06:00am 17.7 NNW 9 13 1014.3 - 0.0 - - - - - - -
26/05:30am 17.9 N 9 12 1014.4 - 0.0 - - - - - - -
26/05:00am 18.2 N 13 17 1014.3 - 0.0 - - - - - - -
26/04:30am 18.1 N 13 15 1014.4 - 0.0 - - - - - - -
26/04:00am 18.6 N 18 23 1014.6 - 0.0 - - - - - - -
26/03:30am 18.8 N 19 22 1014.5 - 0.0 - - - - - - -
26/03:00am 18.9 N 20 23 1014.6 - 0.0 - - - - - - -
26/02:30am 18.9 N 19 23 1014.9 - 0.0 - - - - - - -
26/02:00am 19.1 N 19 23 1015.1 - 0.0 - - - - - - -
26/01:30am 19.4 N 18 21 1015.4 - 0.0 - - - - - - -
26/01:00am 19.6 N 19 25 1015.6 - 0.0 - - - - - - -
26/12:30am 19.6 NNE 19 23 1016.1 - 0.0 - - - - - - -
26/12:00am 19.5 NNE 19 23 1016.1 - 0.0 - - - - - - -
 
Date/Time
EDT
Temp

°C
Wind Pressure Rain
since 9am
mm
Weather Cloud Vis
km
Sea
Height
m
Swell
Dir
 
Speed
knots
Gust
knots
hPa Trend Height
m
Period
s
Dir
25/11:30pm 19.5 NNE 18 22 1016.4 - 0.0 - - - - - - -
25/11:00pm 19.4 NNE 19 23 1016.5 - 0.0 - - - - - - -
25/10:30pm 19.3 NNE 17 21 1016.5 - 0.0 - - - - - - -
25/10:00pm 19.2 NNE 17 20 1016.7 - 0.0 - - - - - - -
25/09:30pm 19.1 NNE 17 21 1016.8 - 0.0 - - - - - - -
25/09:00pm 18.9 NNE 15 18 1016.7 - 0.0 - - - - - - -
25/08:30pm 18.4 NNE 13 15 1016.7 - 0.0 - - - - - - -
25/08:00pm 18.4 NNE 13 16 1016.5 - 0.0 - - - - - - -
25/07:30pm 18.3 NE 12 14 1016.3 - 0.0 - - - - - - -
25/07:00pm 18.5 NE 10 14 1016.4 - 0.0 - - - - - - -
25/06:30pm 18.7 NE 9 12 1016.2 - 0.0 - - - - - - -
25/06:00pm 18.4 ENE 5 8 1016.3 - 0.0 - - - - - - -
25/05:30pm 18.8 ENE 7 10 1016.1 - 0.0 - - - - - - -
25/05:00pm 19.5 ESE 6 8 1016.2 - 0.0 - - - - - - -
25/04:30pm 20.1 SE 8 10 1016.3 - 0.0 - - - - - - -
25/04:00pm 19.7 SSE 9 11 1016.7 - 0.0 - - - - - - -
25/03:30pm 20.2 SSE 11 13 1017.0 - 0.0 - - - - - - -
25/03:00pm 19.9 SSE 12 13 1017.1 - 0.0 - - - - - - -
25/02:30pm 20.2 SSE 13 15 1017.0 - 0.0 - - - - - - -
25/02:00pm 20.8 S 13 15 1017.3 - 0.0 - - - - - - -
25/01:30pm 20.3 S 13 15 1017.4 - 0.0 - - - - - - -
25/01:00pm 19.6 S 13 15 1018.0 - 0.0 - - - - - - -
25/12:30pm 19.3 S 13 16 1017.5 - 0.0 - - - - - - -
25/12:00pm 19.5 S 14 17 1017.8 - 0.0 - - - - - - -
25/11:30am 19.1 S 12 16 1018.0 - 0.0 - - - - - - -
25/11:00am 19.0 SSW 9 11 1018.1 - 0.0 - - - - - - -
25/10:30am 18.2 SW 11 13 1018.1 - 0.0 - - - - - - -
25/10:00am 17.5 WSW 10 12 1018.1 - 0.0 - - - - - - -
25/09:30am 16.7 WSW 12 14 1018.0 - 0.0 - - - - - - -
25/09:00am 16.2 WSW 14 17 1017.8 - 0.0 - - - - - - -
25/08:30am 15.9 WSW 14 16 1017.4 - 0.0 - - - - - - -
25/08:00am 15.7 W 13 15 1017.0 - 0.0 - - - - - - -
25/07:30am 16.0 W 13 15 1016.9 - 0.0 - - - - - - -
25/07:00am 16.7 SW 15 19 1016.2 - 0.0 - - - - - - -
25/06:30am 16.8 SSW 15 20 1015.7 - 0.0 - - - - - - -
25/06:00am 16.6 SSW 17 20 1015.4 - 0.0 - - - - - - -
25/05:30am 16.8 SW 13 16 1015.6 - 0.0 - - - - - - -
25/05:00am 16.7 SW 13 17 1015.4 - 0.0 - - - - - - -
25/04:30am 16.6 WSW 14 17 1015.3 - 0.0 - - - - - - -
25/04:00am 17.1 SW 16 21 1014.8 - 0.0 - - - - - - -
25/03:30am 17.1 SSW 17 20 1014.6 - 0.0 - - - - - - -
25/03:00am 17.3 SW 18 21 1015.0 - 0.0 - - - - - - -
25/02:30am 17.1 SSW 17 20 1015.1 - 0.0 - - - - - - -
25/02:00am 17.0 SSW 18 23 1015.4 - 0.0 - - - - - - -
25/01:30am 17.2 SW 20 23 1015.2 - 0.0 - - - - - - -
25/01:00am 16.9 SW 22 25 1015.2 - 0.0 - - - - - - -
25/12:30am 17.0 SW 23 27 1015.0 - 0.0 - - - - - - -
25/12:00am 16.8 WSW 17 23 1015.1 - 0.0 - - - - - - -
 
Date/Time
EDT
Temp

°C
Wind Pressure Rain
since 9am
mm
Weather Cloud Vis
km
Sea
Height
m
Swell
Dir
 
Speed
knots
Gust
knots
hPa Trend Height
m
Period
s
Dir
24/11:30pm 16.2 WSW 18 21 1015.2 - 0.0 - - - - - - -
24/11:00pm 16.4 SW 17 21 1015.1 - 0.0 - - - - - - -
24/10:30pm 16.0 WSW 20 24 1015.1 - 0.0 - - - - - - -
24/10:00pm 16.2 WSW 23 28 1015.0 - 0.0 - - - - - - -
24/09:30pm 16.3 WSW 21 25 1014.9 - 0.0 - - - - - - -
24/09:00pm 16.6 WSW 23 28 1014.4 - 0.0 - - - - - - -
24/08:30pm 16.6 WSW 23 27 1013.7 - 0.0 - - - - - - -
24/08:00pm 16.7 WSW 25 29 1013.1 - 0.0 - - - - - - -
24/07:30pm 16.8 WSW 23 27 1012.9 - 0.0 - - - - - - -
24/07:00pm 17.0 WSW 18 21 1012.7 - 0.0 - - - - - - -
24/06:30pm 17.6 WSW 19 23 1012.2 - 0.0 - - - - - - -
24/06:00pm 17.9 SW 19 22 1011.6 - 0.0 - - - - - - -
24/05:30pm 18.7 WSW 17 20 1011.4 - 0.0 - - - - - - -
24/05:00pm 18.5 SW 18 21 1011.0 - 0.0 - - - - - - -
24/04:30pm 18.2 SW 17 21 1011.2 - 0.0 - - - - - - -
24/04:00pm 18.1 WSW 20 24 1011.1 - 0.0 - - - - - - -
24/03:30pm 18.1 WSW 17 20 1011.2 - 0.0 - - - - - - -
24/03:00pm 18.0 SW 17 21 1011.3 - 0.0 - - - - - - -

Other Formats:

Comma delimited format used in spreadsheet applications
http://www.bom.gov.au/fwo/IDN60701/IDN60701.94934.axf

JavaScript Object Notation format (JSON) in row-major order
http://www.bom.gov.au/fwo/IDN60701/IDN60701.94934.json